Time;durP1;ratioP1;P1;durP2;ratioP2;P2;SDS_P1;SDS_P2;PMS_P1;PMS_P2;Temp;Humidity;BMP_temperature;BMP_pressure;BME280_temperature;BME280_humidity;BME280_pressure;Samples;Min_cycle;Max_cycle;Signal;HPM_P1;HPM_P2
2023/12/15 00:01:43;;;;;;;5.93;1.70;;;10.80;99.90;;;;;;5051072;28;20101;-83
2023/12/15 00:04:09;;;;;;;3.70;1.35;;;11.30;99.90;;;;;;5050090;28;20033;-83
2023/12/15 00:06:34;;;;;;;5.88;1.20;;;11.00;99.90;;;;;;5032330;28;20024;-83
2023/12/15 00:09:00;;;;;;;3.20;1.40;;;10.80;99.90;;;;;;5050132;28;20548;-83
2023/12/15 00:11:25;;;;;;;2.97;1.25;;;11.00;99.90;;;;;;5050001;28;20029;-83
2023/12/15 00:13:51;;;;;;;1.35;1.00;;;11.60;99.90;;;;;;5030932;28;20070;-83
2023/12/15 00:16:16;;;;;;;3.88;1.10;;;11.00;99.90;;;;;;5030838;28;20021;-83
2023/12/15 00:18:42;;;;;;;2.58;1.20;;;12.10;99.90;;;;;;5029871;28;20037;-83
2023/12/15 00:21:08;;;;;;;3.17;1.10;;;11.90;99.90;;;;;;5012293;28;20253;-83
2023/12/15 00:23:34;;;;;;;3.67;1.13;;;11.40;99.90;;;;;;5029856;28;20030;-83
2023/12/15 00:26:00;;;;;;;2.13;1.48;;;11.50;99.90;;;;;;5029639;28;20393;-83
2023/12/15 00:28:25;;;;;;;4.45;1.38;;;11.60;99.90;;;;;;5010862;28;20025;-84
2023/12/15 00:30:51;;;;;;;5.03;1.83;;;11.40;99.90;;;;;;5029228;28;20389;-83
2023/12/15 00:33:16;;;;;;;1.48;1.30;;;11.50;99.90;;;;;;5030604;28;20029;-85
2023/12/15 00:35:42;;;;;;;3.50;1.10;;;12.20;99.90;;;;;;5029711;28;20029;-83
2023/12/15 00:38:07;;;;;;;3.47;1.35;;;11.70;99.90;;;;;;5029526;28;20121;-83
2023/12/15 00:40:33;;;;;;;3.97;1.30;;;11.50;99.90;;;;;;5029581;28;20100;-83
2023/12/15 00:42:58;;;;;;;3.08;1.20;;;12.10;99.90;;;;;;5020516;28;20033;-83
2023/12/15 00:45:24;;;;;;;4.43;1.20;;;11.70;99.90;;;;;;5029523;28;20061;-83
2023/12/15 00:47:50;;;;;;;2.40;1.60;;;11.80;99.90;;;;;;5030347;28;20025;-83
2023/12/15 00:50:15;;;;;;;5.15;1.52;;;11.30;99.90;;;;;;5030189;28;20071;-83
2023/12/15 00:52:41;;;;;;;4.60;1.58;;;12.00;99.90;;;;;;5029356;28;20393;-83
2023/12/15 00:55:07;;;;;;;4.45;1.50;;;11.80;99.90;;;;;;5011344;28;20112;-88
2023/12/15 00:57:33;;;;;;;3.03;1.40;;;11.20;99.90;;;;;;5029340;28;20030;-83
2023/12/15 00:59:58;;;;;;;1.80;1.20;;;11.50;99.90;;;;;;5029171;28;20362;-83
2023/12/15 01:02:24;;;;;;;3.78;1.27;;;11.80;99.90;;;;;;5029280;28;20034;-83
2023/12/15 01:04:49;;;;;;;3.33;1.35;;;11.20;99.90;;;;;;5040441;28;20083;-83
2023/12/15 01:07:15;;;;;;;3.33;1.20;;;11.70;99.90;;;;;;5049014;28;20032;-83
2023/12/15 01:09:40;;;;;;;5.53;2.00;;;11.60;99.90;;;;;;5048056;28;20385;-83
2023/12/15 01:12:06;;;;;;;3.92;1.40;;;11.90;99.90;;;;;;5048904;28;20025;-83
2023/12/15 01:14:32;;;;;;;5.88;1.80;;;11.30;99.90;;;;;;5042386;28;20551;-84
2023/12/15 01:16:59;;;;;;;9.43;2.20;;;12.00;99.90;;;;;;5011444;28;20021;-83
2023/12/15 01:19:24;;;;;;;3.35;1.48;;;11.10;99.90;;;;;;5029067;28;20061;-83
2023/12/15 01:21:50;;;;;;;6.28;1.55;;;11.70;99.90;;;;;;5029541;28;20445;-83
2023/12/15 01:24:15;;;;;;;3.00;1.30;;;11.40;99.90;;;;;;5031424;28;20086;-83
2023/12/15 01:26:41;;;;;;;3.05;1.60;;;11.20;99.90;;;;;;5048971;28;20048;-83
2023/12/15 01:29:06;;;;;;;4.45;1.83;;;10.90;99.90;;;;;;5048887;28;20111;-83
2023/12/15 01:31:32;;;;;;;5.43;1.70;;;11.90;99.90;;;;;;5048747;28;20026;-83
2023/12/15 01:33:58;;;;;;;4.53;1.70;;;11.10;99.90;;;;;;5048862;28;20025;-83
2023/12/15 01:36:24;;;;;;;4.60;1.50;;;11.70;99.90;;;;;;5048878;28;20028;-83
2023/12/15 01:38:50;;;;;;;2.42;1.40;;;11.70;99.90;;;;;;5041589;28;20042;-83
2023/12/15 01:41:15;;;;;;;3.13;1.52;;;11.30;99.90;;;;;;5030649;28;20018;-83
2023/12/15 01:43:41;;;;;;;3.58;2.08;;;11.50;99.90;;;;;;5032855;28;20494;-83
2023/12/15 01:46:06;;;;;;;5.82;2.10;;;11.50;99.90;;;;;;5032913;28;20017;-83
2023/12/15 01:48:34;;;;;;;5.45;2.33;;;11.90;99.90;;;;;;5032756;28;20470;-82
2023/12/15 01:50:59;;;;;;;2.83;1.77;;;11.30;99.90;;;;;;5015028;28;20074;-82
2023/12/15 01:53:25;;;;;;;6.05;2.28;;;11.30;99.90;;;;;;5042681;28;20037;-82
2023/12/15 01:55:51;;;;;;;3.22;1.80;;;11.80;99.90;;;;;;5053393;28;20476;-82
2023/12/15 01:58:16;;;;;;;3.22;1.92;;;10.90;99.90;;;;;;5052492;28;20358;-82
2023/12/15 02:00:46;;;;;;;3.67;1.60;;;11.80;99.90;;;;;;5034691;28;20504;-82
2023/12/15 02:03:12;;;;;;;4.60;2.42;;;11.90;99.90;;;;;;5052717;28;20028;-82
2023/12/15 02:05:37;;;;;;;3.67;1.77;;;12.10;99.90;;;;;;5052350;28;20025;-82
2023/12/15 02:08:03;;;;;;;4.45;1.70;;;11.00;99.90;;;;;;5041668;28;20033;-82
2023/12/15 02:10:29;;;;;;;2.95;1.80;;;11.30;99.90;;;;;;5012459;28;20026;-82
2023/12/15 02:12:55;;;;;;;2.30;1.80;;;11.70;99.90;;;;;;5013120;28;20038;-82
2023/12/15 02:15:20;;;;;;;2.88;1.60;;;11.40;99.90;;;;;;4995830;28;20516;-82
2023/12/15 02:17:46;;;;;;;3.72;2.00;;;11.60;99.90;;;;;;5012390;28;20033;-82
2023/12/15 02:20:11;;;;;;;1.77;1.60;;;11.80;99.90;;;;;;4994813;28;20113;-82
2023/12/15 02:22:37;;;;;;;3.08;1.80;;;10.70;99.90;;;;;;5023540;28;20026;-82
2023/12/15 02:25:03;;;;;;;6.82;2.10;;;11.50;99.90;;;;;;5013637;28;20041;-82
2023/12/15 02:27:28;;;;;;;3.30;1.80;;;10.80;99.90;;;;;;5012344;28;20021;-82
2023/12/15 02:29:54;;;;;;;2.85;1.80;;;11.50;99.90;;;;;;5012807;28;20030;-82
2023/12/15 02:32:19;;;;;;;2.63;1.75;;;11.80;99.90;;;;;;5021138;28;20029;-82
2023/12/15 02:34:45;;;;;;;3.80;1.85;;;11.20;99.90;;;;;;5014280;28;20312;-82
2023/12/15 02:37:11;;;;;;;5.72;1.80;;;10.80;99.90;;;;;;5030132;28;20033;-83
2023/12/15 02:39:39;;;;;;;3.78;1.73;;;11.20;99.90;;;;;;5011938;28;20441;-82
2023/12/15 02:42:05;;;;;;;3.05;2.03;;;11.30;99.90;;;;;;5012067;28;20026;-82
2023/12/15 02:44:32;;;;;;;3.42;1.92;;;11.30;99.90;;;;;;5012037;28;20040;-82
2023/12/15 02:46:58;;;;;;;2.97;1.75;;;10.40;99.90;;;;;;5012875;28;20060;-81
2023/12/15 02:49:24;;;;;;;4.30;1.90;;;11.00;99.90;;;;;;5012872;28;20033;-82
2023/12/15 02:51:49;;;;;;;1.77;1.60;;;11.10;99.90;;;;;;5011707;28;20026;-82
2023/12/15 02:54:15;;;;;;;3.70;1.80;;;10.20;99.90;;;;;;5012989;28;20501;-82
2023/12/15 02:56:40;;;;;;;3.15;1.90;;;10.20;99.90;;;;;;5011845;28;20022;-82
2023/12/15 02:59:06;;;;;;;2.22;1.80;;;10.90;99.90;;;;;;5025188;28;20119;-82
2023/12/15 03:01:32;;;;;;;2.95;1.92;;;9.90;99.90;;;;;;5031467;28;20462;-82
2023/12/15 03:03:57;;;;;;;2.65;1.90;;;11.00;99.90;;;;;;5031435;28;20025;-82
2023/12/15 03:06:23;;;;;;;2.65;1.90;;;10.20;99.90;;;;;;5032209;28;20033;-82
2023/12/15 03:08:48;;;;;;;2.85;2.00;;;9.60;99.90;;;;;;5031292;28;20113;-81
2023/12/15 03:11:14;;;;;;;3.95;2.33;;;10.30;99.90;;;;;;5031324;28;20037;-82
2023/12/15 03:13:40;;;;;;;3.88;2.30;;;10.40;99.90;;;;;;5013334;28;20390;-82
2023/12/15 03:16:10;;;;;;;3.92;2.10;;;9.80;99.90;;;;;;5011520;28;20021;-82
2023/12/15 03:18:37;;;;;;;4.28;2.20;;;9.70;99.90;;;;;;5011355;28;20037;-82
2023/12/15 03:21:03;;;;;;;3.75;2.45;;;9.50;99.90;;;;;;5011328;28;20026;-82
2023/12/15 03:23:29;;;;;;;3.75;2.05;;;9.20;99.90;;;;;;5027186;28;20079;-82
2023/12/15 03:25:55;;;;;;;3.35;2.20;;;10.10;99.90;;;;;;5031544;28;20037;-82
2023/12/15 03:28:20;;;;;;;5.00;2.10;;;9.50;99.90;;;;;;5024065;28;20063;-82
2023/12/15 03:30:46;;;;;;;5.50;2.10;;;10.00;99.90;;;;;;5011216;28;20028;-82
2023/12/15 03:33:12;;;;;;;5.70;2.63;;;10.40;99.90;;;;;;5010979;28;20072;-82
2023/12/15 03:35:37;;;;;;;10.00;3.15;;;9.60;99.90;;;;;;5011123;28;20038;-85
2023/12/15 03:38:04;;;;;;;5.20;2.38;;;10.00;99.90;;;;;;5025107;28;20489;-82
2023/12/15 03:40:29;;;;;;;3.83;2.25;;;10.50;99.90;;;;;;5030703;28;20033;-82
2023/12/15 03:42:55;;;;;;;5.55;2.30;;;9.80;99.90;;;;;;5031578;28;20549;-82
2023/12/15 03:45:21;;;;;;;4.47;2.28;;;9.40;99.90;;;;;;4998803;28;20037;-82
2023/12/15 03:47:46;;;;;;;13.00;3.00;;;9.60;99.90;;;;;;5010779;28;20389;-82
2023/12/15 03:50:12;;;;;;;8.57;2.85;;;10.30;99.90;;;;;;5010772;28;20045;-82
2023/12/15 03:52:37;;;;;;;4.93;2.30;;;10.30;99.90;;;;;;4993104;28;20367;-82
2023/12/15 03:55:03;;;;;;;10.48;2.65;;;9.80;99.90;;;;;;5010700;28;20073;-82
2023/12/15 03:57:29;;;;;;;6.60;2.35;;;9.20;99.90;;;;;;5023303;28;20044;-83
2023/12/15 03:59:54;;;;;;;3.55;2.20;;;9.80;99.90;;;;;;5030234;28;20040;-82
2023/12/15 04:02:20;;;;;;;4.25;2.30;;;9.30;99.90;;;;;;5030363;28;20261;-82
2023/12/15 04:04:46;;;;;;;8.25;2.50;;;10.60;99.90;;;;;;5029259;28;20420;-82
2023/12/15 04:07:11;;;;;;;3.42;2.20;;;9.80;99.90;;;;;;5030144;28;20068;-83
2023/12/15 04:09:38;;;;;;;4.57;2.08;;;9.00;99.90;;;;;;5030234;28;20394;-82
2023/12/15 04:12:04;;;;;;;5.22;2.03;;;9.30;99.90;;;;;;5021283;28;20030;-82
2023/12/15 04:14:32;;;;;;;4.95;2.42;;;9.50;99.90;;;;;;5011274;28;20022;-82
2023/12/15 04:16:58;;;;;;;7.68;2.40;;;9.40;99.90;;;;;;5011258;28;20088;-82
2023/12/15 04:19:23;;;;;;;8.23;2.30;;;9.80;99.90;;;;;;4992577;28;20030;-82
2023/12/15 04:21:49;;;;;;;3.38;2.05;;;10.10;99.90;;;;;;5010173;28;20065;-83
2023/12/15 04:24:14;;;;;;;9.65;2.42;;;10.30;99.90;;;;;;5010011;28;20044;-83
2023/12/15 04:26:49;;;;;;;5.45;2.33;;;9.40;99.90;;;;;;5107047;27;20791;-82
2023/12/15 04:29:14;;;;;;;8.43;2.33;;;9.60;99.90;;;;;;5106493;28;20471;-82
2023/12/15 04:31:40;;;;;;;8.60;2.42;;;10.20;99.90;;;;;;5106542;28;20073;-82
2023/12/15 04:34:05;;;;;;;9.93;2.30;;;9.50;99.90;;;;;;5105524;28;20111;-82
2023/12/15 04:36:32;;;;;;;6.15;3.88;;;10.20;99.90;;;;;;5107673;28;20103;-83
2023/12/15 04:38:58;;;;;;;7.32;2.47;;;10.50;99.90;;;;;;5106108;28;20028;-82
2023/12/15 04:41:24;;;;;;;5.88;2.53;;;10.00;99.90;;;;;;5106401;28;20097;-83
2023/12/15 04:43:51;;;;;;;8.82;2.38;;;9.70;99.90;;;;;;5106542;28;20036;-82
2023/12/15 04:46:28;;;;;;;8.90;2.30;;;9.50;99.90;;;;;;5106560;28;20028;-82
2023/12/15 04:48:55;;;;;;;8.40;2.38;;;10.90;99.90;;;;;;5106480;28;20024;-82
2023/12/15 04:51:22;;;;;;;7.63;2.22;;;10.60;99.90;;;;;;5106053;28;20437;-83
2023/12/15 04:53:48;;;;;;;7.00;2.40;;;9.60;99.90;;;;;;5106563;28;20069;-83
2023/12/15 04:56:14;;;;;;;7.88;2.40;;;10.30;99.90;;;;;;5102129;28;20036;-82
2023/12/15 04:58:41;;;;;;;6.80;2.15;;;9.90;99.90;;;;;;5106309;28;20020;-81
2023/12/15 05:01:10;;;;;;;6.82;2.20;;;9.60;99.90;;;;;;5104575;28;20496;-82
2023/12/15 05:03:37;;;;;;;5.55;2.60;;;9.90;99.90;;;;;;5106223;28;20069;-82
2023/12/15 05:06:03;;;;;;;8.85;2.50;;;10.10;99.90;;;;;;5087205;28;20040;-82
2023/12/15 05:08:28;;;;;;;7.00;2.20;;;9.60;99.90;;;;;;5107130;28;20124;-82
2023/12/15 05:10:54;;;;;;;7.55;3.03;;;9.60;99.90;;;;;;5123904;28;20679;-82
2023/12/15 05:13:19;;;;;;;6.93;2.10;;;10.20;99.90;;;;;;5117708;27;20035;-83
2023/12/15 05:15:45;;;;;;;12.38;3.17;;;10.80;99.90;;;;;;5107941;28;20039;-82
2023/12/15 05:18:10;;;;;;;4.95;1.90;;;11.10;99.90;;;;;;5126448;28;20023;-83
2023/12/15 05:20:37;;;;;;;9.60;2.30;;;10.90;99.90;;;;;;5126404;28;20046;-82
2023/12/15 05:23:03;;;;;;;7.90;2.20;;;10.00;99.90;;;;;;5112019;28;20020;-83
2023/12/15 05:25:29;;;;;;;9.10;2.42;;;10.90;99.90;;;;;;5124923;27;20066;-83
2023/12/15 05:27:55;;;;;;;10.25;2.35;;;9.80;99.90;;;;;;5126305;28;21055;-83
2023/12/15 05:30:22;;;;;;;8.32;2.08;;;10.20;99.90;;;;;;5116461;28;20047;-83
2023/12/15 05:32:47;;;;;;;8.05;2.33;;;10.30;99.90;;;;;;5104089;28;20054;-82
2023/12/15 05:35:13;;;;;;;7.70;2.30;;;10.70;99.90;;;;;;5105646;28;20484;-86
2023/12/15 05:37:39;;;;;;;13.88;2.55;;;9.80;99.90;;;;;;5095185;28;20032;-83
2023/12/15 05:40:05;;;;;;;9.65;2.70;;;11.20;99.90;;;;;;5092822;28;20024;-83
2023/12/15 05:42:30;;;;;;;9.82;2.75;;;9.80;99.90;;;;;;5092026;28;20023;-83
2023/12/15 05:44:56;;;;;;;8.07;2.30;;;9.70;99.90;;;;;;5091921;28;20331;-84
2023/12/15 05:47:22;;;;;;;14.88;2.15;;;10.30;99.90;;;;;;5091344;28;20495;-83
2023/12/15 05:49:47;;;;;;;10.50;2.38;;;10.60;99.90;;;;;;5093512;28;20036;-83
2023/12/15 05:52:14;;;;;;;8.77;2.45;;;10.10;99.90;;;;;;5096364;28;20020;-87
2023/12/15 05:54:40;;;;;;;9.77;2.47;;;10.70;99.90;;;;;;5096190;28;20086;-82
2023/12/15 05:57:07;;;;;;;8.27;2.60;;;10.10;99.90;;;;;;5101615;28;20020;-83
2023/12/15 05:59:32;;;;;;;9.75;2.45;;;10.80;99.90;;;;;;5092626;28;20024;-83
2023/12/15 06:01:58;;;;;;;9.73;2.55;;;10.10;99.90;;;;;;5090285;28;20028;-83
2023/12/15 06:04:24;;;;;;;12.45;2.63;;;10.00;99.90;;;;;;5089967;28;20035;-84
2023/12/15 06:06:50;;;;;;;9.02;2.35;;;10.40;99.90;;;;;;5091246;28;20487;-83
2023/12/15 06:09:16;;;;;;;5.57;2.13;;;9.70;99.90;;;;;;5091426;28;20016;-83
2023/12/15 06:11:42;;;;;;;14.75;2.20;;;9.90;99.90;;;;;;5090099;28;20074;-83
2023/12/15 06:14:09;;;;;;;5.93;2.08;;;10.70;99.90;;;;;;5091562;28;20484;-83
2023/12/15 06:16:35;;;;;;;10.70;3.70;;;10.70;99.90;;;;;;5092179;28;20050;-83
2023/12/15 06:19:01;;;;;;;9.52;2.60;;;10.40;99.90;;;;;;5091480;28;20028;-83
2023/12/15 06:21:27;;;;;;;12.57;2.90;;;10.70;99.90;;;;;;5091232;28;20361;-83
2023/12/15 06:23:54;;;;;;;10.75;2.35;;;10.70;99.90;;;;;;5091088;28;20553;-83
2023/12/15 06:26:24;;;;;;;9.68;2.88;;;9.90;99.90;;;;;;5091019;28;20036;-83
2023/12/15 06:28:50;;;;;;;9.95;2.58;;;10.60;99.90;;;;;;5091190;28;20058;-83
2023/12/15 06:31:16;;;;;;;8.77;2.65;;;10.70;99.90;;;;;;5091073;28;20506;-83
2023/12/15 06:33:42;;;;;;;5.32;2.17;;;10.70;99.90;;;;;;5090882;28;20052;-88
2023/12/15 06:36:11;;;;;;;7.90;2.30;;;10.10;99.90;;;;;;5091751;28;20044;-89
2023/12/15 06:38:37;;;;;;;11.48;2.33;;;10.70;99.90;;;;;;5091626;28;20392;-84
2023/12/15 06:41:04;;;;;;;12.18;2.95;;;10.70;99.90;;;;;;5090874;28;20540;-83
2023/12/15 06:43:30;;;;;;;10.30;2.60;;;9.90;99.90;;;;;;5090928;28;20085;-83
2023/12/15 06:45:56;;;;;;;13.65;2.22;;;10.30;99.90;;;;;;5089518;28;20069;-83
2023/12/15 06:48:21;;;;;;;12.60;2.47;;;11.00;99.90;;;;;;5089650;28;20031;-83
2023/12/15 06:50:47;;;;;;;8.70;2.53;;;10.00;99.90;;;;;;5090552;28;20024;-88
2023/12/15 06:53:12;;;;;;;8.40;2.30;;;10.10;99.90;;;;;;5090331;28;20434;-83
2023/12/15 06:55:38;;;;;;;10.25;2.97;;;10.80;99.90;;;;;;5091181;28;20024;-87
2023/12/15 06:58:04;;;;;;;11.20;2.17;;;11.10;99.90;;;;;;5088826;28;20023;-87
2023/12/15 07:00:29;;;;;;;12.82;2.58;;;10.80;99.90;;;;;;5090389;28;20458;-83
2023/12/15 07:02:55;;;;;;;13.85;2.50;;;10.90;99.90;;;;;;5090288;28;20035;-83
2023/12/15 07:05:20;;;;;;;11.50;2.75;;;11.20;99.90;;;;;;5088977;28;20081;-83
2023/12/15 07:07:46;;;;;;;7.25;2.28;;;10.90;99.90;;;;;;5090212;28;20476;-82
2023/12/15 07:10:11;;;;;;;7.50;2.17;;;10.70;99.90;;;;;;5090162;28;20042;-83
2023/12/15 07:12:37;;;;;;;7.20;2.33;;;10.10;99.90;;;;;;5090946;28;20052;-83
2023/12/15 07:15:03;;;;;;;6.25;2.58;;;10.40;99.90;;;;;;5089974;28;20035;-83
2023/12/15 07:17:29;;;;;;;4.82;2.10;;;10.10;99.90;;;;;;5076419;28;20028;-83
2023/12/15 07:19:55;;;;;;;7.43;2.60;;;11.30;99.90;;;;;;5075940;28;20047;-83
2023/12/15 07:22:20;;;;;;;4.15;1.88;;;11.20;99.90;;;;;;5072786;28;20056;-83
2023/12/15 07:24:46;;;;;;;10.38;2.20;;;11.10;99.90;;;;;;5085606;28;20830;-83
2023/12/15 07:27:11;;;;;;;12.75;2.80;;;11.10;99.90;;;;;;5089158;28;20028;-82
2023/12/15 07:29:39;;;;;;;14.15;2.60;;;11.10;99.90;;;;;;5089931;28;20024;-84
2023/12/15 07:32:05;;;;;;;11.43;2.38;;;10.20;99.90;;;;;;5089056;28;20024;-83
2023/12/15 07:34:30;;;;;;;6.60;2.22;;;10.10;99.90;;;;;;5088898;28;20819;-83
2023/12/15 07:36:56;;;;;;;9.13;3.05;;;10.50;99.90;;;;;;5088876;28;20062;-87
2023/12/15 07:39:21;;;;;;;10.77;2.65;;;11.20;99.90;;;;;;5089600;28;20024;-83
2023/12/15 07:41:48;;;;;;;14.35;2.58;;;10.00;99.90;;;;;;5087765;28;20055;-84
2023/12/15 07:44:14;;;;;;;17.05;2.63;;;11.30;99.90;;;;;;5085855;28;20073;-82
2023/12/15 07:46:41;;;;;;;11.10;3.03;;;10.80;99.90;;;;;;5089384;28;20074;-87
2023/12/15 07:49:07;;;;;;;12.30;2.72;;;11.30;99.90;;;;;;5090159;28;20012;-83
2023/12/15 07:51:32;;;;;;;10.55;2.50;;;10.10;99.90;;;;;;5089089;28;20031;-86
2023/12/15 07:53:58;;;;;;;10.27;2.45;;;10.60;99.90;;;;;;5089141;28;20028;-83
2023/12/15 07:56:26;;;;;;;8.13;2.30;;;11.20;99.90;;;;;;5088401;28;20016;-84
2023/12/15 07:58:52;;;;;;;8.73;2.47;;;11.00;99.90;;;;;;5089433;28;20024;-83
2023/12/15 08:01:18;;;;;;;10.18;2.72;;;10.40;99.90;;;;;;5088930;28;20030;-82
2023/12/15 08:03:45;;;;;;;13.52;3.08;;;10.60;99.90;;;;;;5088646;28;20590;-83
2023/12/15 08:06:16;;;;;;;9.82;2.63;;;10.20;99.90;;;;;;5089748;28;20050;-83
2023/12/15 08:08:42;;;;;;;8.95;2.20;;;10.40;99.90;;;;;;5087594;28;20024;-82
2023/12/15 08:11:09;;;;;;;8.70;2.33;;;10.80;99.90;;;;;;5090071;28;20460;-87
2023/12/15 08:13:36;;;;;;;13.20;3.15;;;10.40;99.90;;;;;;5089148;28;20027;-82
2023/12/15 08:16:03;;;;;;;10.85;3.40;;;11.10;99.90;;;;;;5088857;28;20485;-83
2023/12/15 08:18:29;;;;;;;11.27;2.90;;;9.90;99.90;;;;;;5088832;28;20020;-83
2023/12/15 08:20:54;;;;;;;9.93;2.60;;;10.80;99.90;;;;;;5088431;28;20024;-84
2023/12/15 08:23:20;;;;;;;8.43;2.50;;;10.60;99.90;;;;;;5088580;28;20571;-87
2023/12/15 08:25:45;;;;;;;10.82;2.85;;;10.00;99.90;;;;;;5088799;28;20054;-86
2023/12/15 08:28:11;;;;;;;14.32;2.95;;;10.30;99.90;;;;;;5089221;28;20081;-83
2023/12/15 08:30:38;;;;;;;11.40;3.05;;;11.10;99.90;;;;;;5089676;28;20472;-84
2023/12/15 08:33:04;;;;;;;11.35;2.85;;;10.60;99.90;;;;;;5088881;28;20482;-87
2023/12/15 08:35:31;;;;;;;15.77;2.65;;;10.80;99.90;;;;;;5088506;28;20028;-83
2023/12/15 08:37:57;;;;;;;13.48;3.10;;;10.70;99.90;;;;;;5088633;28;20024;-83
2023/12/15 08:40:23;;;;;;;10.10;2.88;;;10.20;99.90;;;;;;5088796;28;20052;-83
2023/12/15 08:42:50;;;;;;;11.73;3.00;;;10.90;99.90;;;;;;5088257;28;20074;-82
2023/12/15 08:45:16;;;;;;;8.25;2.53;;;10.80;99.90;;;;;;5088100;28;20097;-83
2023/12/15 08:47:42;;;;;;;13.50;3.00;;;10.60;99.90;;;;;;5088187;28;20020;-83
2023/12/15 08:50:07;;;;;;;10.20;2.78;;;10.30;99.90;;;;;;5088502;28;20077;-84
2023/12/15 08:52:33;;;;;;;11.25;2.58;;;10.00;99.90;;;;;;5088570;28;20028;-83
2023/12/15 08:54:59;;;;;;;13.93;2.60;;;10.30;99.90;;;;;;5088964;28;20509;-83
2023/12/15 08:57:24;;;;;;;11.60;2.50;;;10.10;99.90;;;;;;5089146;28;20020;-84
2023/12/15 08:59:51;;;;;;;11.73;2.90;;;11.10;99.90;;;;;;5089288;28;20103;-84
2023/12/15 09:02:16;;;;;;;8.32;2.63;;;10.70;99.90;;;;;;5088385;28;20102;-88
2023/12/15 09:04:42;;;;;;;17.63;3.10;;;11.30;99.90;;;;;;5088492;28;20059;-85
2023/12/15 09:07:08;;;;;;;10.15;2.47;;;10.90;99.90;;;;;;5089392;28;20028;-88
2023/12/15 09:09:34;;;;;;;12.82;2.97;;;11.20;99.90;;;;;;5087291;28;20024;-87
2023/12/15 09:12:01;;;;;;;13.52;2.78;;;11.80;99.90;;;;;;5089749;28;20031;-87
2023/12/15 09:14:28;;;;;;;11.65;3.40;;;11.00;99.90;;;;;;5092235;28;20391;-87
2023/12/15 09:16:54;;;;;;;17.27;3.47;;;10.40;99.90;;;;;;5092138;28;20559;-87
2023/12/15 09:19:21;;;;;;;12.60;2.75;;;10.40;99.90;;;;;;5092024;28;20103;-85
2023/12/15 09:21:46;;;;;;;15.70;3.33;;;10.60;99.90;;;;;;5091995;28;20106;-87
2023/12/15 09:24:14;;;;;;;19.75;3.53;;;10.80;99.90;;;;;;5092113;28;20105;-84
2023/12/15 09:26:42;;;;;;;17.05;3.25;;;10.80;99.90;;;;;;5091192;28;20521;-84
2023/12/15 09:29:08;;;;;;;10.35;3.15;;;10.90;99.90;;;;;;5091966;28;20034;-83
2023/12/15 09:31:34;;;;;;;13.45;3.03;;;11.90;99.90;;;;;;5091826;28;20502;-83
2023/12/15 09:34:00;;;;;;;10.93;2.63;;;10.60;99.90;;;;;;5091728;28;20107;-84
2023/12/15 09:36:26;;;;;;;14.82;2.83;;;11.80;99.90;;;;;;5091816;28;20020;-84
2023/12/15 09:38:53;;;;;;;11.85;2.88;;;12.00;99.90;;;;;;5091704;28;20085;-84
2023/12/15 09:41:19;;;;;;;9.98;3.13;;;10.80;99.90;;;;;;5091215;28;20054;-84
2023/12/15 09:43:44;;;;;;;13.70;3.20;;;11.90;99.90;;;;;;5091936;28;20098;-85
2023/12/15 09:46:11;;;;;;;8.20;3.17;;;11.60;99.90;;;;;;5092655;28;20040;-83
2023/12/15 09:48:37;;;;;;;38.90;13.93;;;11.40;99.90;;;;;;5091827;28;20395;-83
2023/12/15 09:51:07;;;;;;;16.95;3.78;;;11.30;99.90;;;;;;5091673;28;20058;-85
2023/12/15 09:53:35;;;;;;;47.15;22.42;;;9.80;99.90;;;;;;5091757;28;20585;-83
2023/12/15 09:56:01;;;;;;;15.95;3.05;;;11.50;99.90;;;;;;5091572;28;20035;-84
2023/12/15 09:58:27;;;;;;;16.55;3.60;;;11.60;99.90;;;;;;5091402;28;20024;-83
2023/12/15 10:00:52;;;;;;;19.23;2.97;;;11.50;99.90;;;;;;5091230;28;20073;-85
2023/12/15 10:03:18;;;;;;;19.95;4.72;;;11.30;99.90;;;;;;5091020;28;20017;-85
2023/12/15 10:05:44;;;;;;;17.73;3.78;;;11.10;99.90;;;;;;5091077;28;20093;-84
2023/12/15 10:08:09;;;;;;;14.80;5.47;;;11.00;99.90;;;;;;5092098;28;20019;-84
2023/12/15 10:10:35;;;;;;;14.07;6.85;;;10.80;99.90;;;;;;5091216;28;20103;-86
2023/12/15 10:13:01;;;;;;;15.27;3.17;;;11.00;99.90;;;;;;5090987;28;20690;-86
2023/12/15 10:15:27;;;;;;;15.65;3.38;;;11.50;99.90;;;;;;5091356;28;20020;-88
2023/12/15 10:17:54;;;;;;;14.68;2.92;;;11.10;99.90;;;;;;5091247;28;20051;-84
2023/12/15 10:20:19;;;;;;;11.38;3.65;;;11.20;99.90;;;;;;5091099;28;20105;-84
2023/12/15 10:22:46;;;;;;;12.38;3.85;;;11.30;99.90;;;;;;5091012;28;20055;-84
2023/12/15 10:25:22;;;;;;;12.55;4.20;;;11.90;99.90;;;;;;5091471;28;20035;-83
2023/12/15 10:27:48;;;;;;;14.90;5.53;;;10.70;99.90;;;;;;5090716;28;20047;-85
2023/12/15 10:30:19;;;;;;;18.67;4.60;;;11.50;99.90;;;;;;5091028;28;20099;-85
2023/12/15 10:32:45;;;;;;;15.73;3.65;;;10.80;99.90;;;;;;5090617;28;20617;-85
2023/12/15 10:35:12;;;;;;;13.27;3.05;;;11.20;99.90;;;;;;5091660;28;20026;-84
2023/12/15 10:37:39;;;;;;;12.95;3.33;;;11.50;99.90;;;;;;5091579;28;20024;-84
2023/12/15 10:40:05;;;;;;;13.75;4.10;;;11.30;99.90;;;;;;5090396;28;20030;-85
2023/12/15 10:42:31;;;;;;;18.02;4.03;;;10.90;99.90;;;;;;5090126;28;20020;-83
2023/12/15 10:44:58;;;;;;;19.35;5.50;;;11.80;99.90;;;;;;5090298;28;20391;-83
2023/12/15 10:47:26;;;;;;;10.43;3.80;;;10.80;99.90;;;;;;5090503;28;20487;-84
2023/12/15 10:49:53;;;;;;;24.35;12.20;;;11.50;99.90;;;;;;5070269;28;20016;-86
2023/12/15 10:52:21;;;;;;;28.17;16.33;;;11.10;99.90;;;;;;5069896;28;20032;-84
2023/12/15 10:54:51;;;;;;;;;;;11.30;99.90;;;;;;5069254;28;20021;-83
2023/12/15 10:57:17;;;;;;;28.70;8.57;;;11.50;99.90;;;;;;5078159;28;19998;-83
2023/12/15 10:59:43;;;;;;;13.50;3.78;;;11.30;99.90;;;;;;5091054;28;20063;-83
2023/12/15 11:02:15;;;;;;;23.42;8.00;;;11.10;99.90;;;;;;5090367;28;20043;-85
2023/12/15 11:04:41;;;;;;;17.50;7.88;;;11.10;99.90;;;;;;5091193;28;20032;-84
2023/12/15 11:07:07;;;;;;;18.60;6.97;;;11.50;99.90;;;;;;5090435;28;20028;-84
2023/12/15 11:09:34;;;;;;;19.67;7.40;;;11.90;99.90;;;;;;5090286;28;20322;-84
2023/12/15 11:12:30;;;;;;;17.17;5.63;;;11.60;99.90;;;;;;5090241;28;20028;-84
2023/12/15 11:15:26;;;;;;;18.40;4.18;;;11.20;99.90;;;;;;5090136;28;20020;-86
2023/12/15 11:17:54;;;;;;;16.60;4.10;;;11.90;99.90;;;;;;5076388;28;20161;-84
2023/12/15 11:20:20;;;;;;;16.63;6.00;;;11.20;99.90;;;;;;5088850;28;20035;-85
2023/12/15 11:22:51;;;;;;;17.73;4.30;;;12.20;99.90;;;;;;5089989;28;20396;-84
2023/12/15 11:25:24;;;;;;;18.00;4.82;;;11.80;99.90;;;;;;5089767;28;20040;-85
2023/12/15 11:28:00;;;;;;;15.18;3.53;;;11.70;99.90;;;;;;5088485;28;20024;-84
2023/12/15 11:30:52;;;;;;;17.05;4.40;;;11.30;99.90;;;;;;5089909;28;20102;-84
2023/12/15 11:33:24;;;;;;;11.63;3.42;;;11.20;99.90;;;;;;5086758;28;20034;-82
2023/12/15 11:36:01;;;;;;;15.75;5.80;;;11.10;99.90;;;;;;5089565;28;20048;-82
2023/12/15 11:38:27;;;;;;;18.23;4.03;;;11.00;99.90;;;;;;5089549;28;20023;-84
2023/12/15 11:40:54;;;;;;;19.42;6.03;;;11.30;99.90;;;;;;5089601;28;20032;-84
2023/12/15 11:43:20;;;;;;;19.50;6.60;;;11.30;99.90;;;;;;5089589;28;20024;-83
2023/12/15 11:45:48;;;;;;;17.23;3.67;;;11.60;99.90;;;;;;5089673;28;20055;-83
2023/12/15 11:48:14;;;;;;;13.13;3.95;;;12.10;99.90;;;;;;5090467;28;20028;-90
2023/12/15 11:50:43;;;;;;;14.82;4.00;;;12.10;99.90;;;;;;5088390;28;20199;-90
2023/12/15 11:53:10;;;;;;;18.77;8.20;;;11.70;99.90;;;;;;5089976;28;20020;-86
2023/12/15 11:55:36;;;;;;;17.92;9.38;;;12.10;99.90;;;;;;5091627;28;20028;-86
2023/12/15 11:58:02;;;;;;;14.52;3.95;;;12.20;99.90;;;;;;5090342;28;20032;-87
2023/12/15 12:00:30;;;;;;;18.55;6.95;;;11.90;99.90;;;;;;5090142;28;20019;-85
2023/12/15 12:02:56;;;;;;;16.90;3.80;;;12.30;99.90;;;;;;5089128;28;20158;-85
2023/12/15 12:05:22;;;;;;;14.27;4.15;;;12.10;99.90;;;;;;5089112;28;20028;-85
2023/12/15 12:07:48;;;;;;;14.85;3.10;;;11.60;99.90;;;;;;5087662;28;20020;-85
2023/12/15 12:10:14;;;;;;;15.82;3.03;;;11.00;99.90;;;;;;5089730;28;20027;-85
2023/12/15 12:12:40;;;;;;;8.43;2.92;;;11.00;99.90;;;;;;5088779;28;20024;-84
2023/12/15 12:15:09;;;;;;;14.68;4.53;;;11.10;99.90;;;;;;5088767;28;20024;-85
2023/12/15 12:17:36;;;;;;;10.73;2.75;;;11.10;99.90;;;;;;5088650;28;20023;-89
2023/12/15 12:20:06;;;;;;;20.77;7.32;;;11.30;99.90;;;;;;5088900;28;20024;-86
2023/12/15 12:22:33;;;;;;;9.15;3.17;;;10.90;99.90;;;;;;5086587;28;20488;-88
2023/12/15 12:24:59;;;;;;;11.98;3.40;;;11.60;99.90;;;;;;5085561;28;20495;-86
2023/12/15 12:27:35;;;;;;;11.32;3.42;;;11.50;99.90;;;;;;5105490;28;20058;-84
2023/12/15 12:30:01;;;;;;;9.65;3.50;;;10.70;99.90;;;;;;5108476;28;20024;-88
2023/12/15 12:32:27;;;;;;;14.68;5.25;;;11.00;99.90;;;;;;5108851;28;20027;-86
2023/12/15 12:34:53;;;;;;;17.00;3.90;;;11.70;99.90;;;;;;5109087;28;20019;-90
2023/12/15 12:37:19;;;;;;;13.65;4.35;;;11.60;99.90;;;;;;5109009;28;20034;-85
2023/12/15 12:39:45;;;;;;;16.90;5.43;;;10.90;99.90;;;;;;5109384;28;20015;-84